CFG7KH EDDH-LGRP
Flight info
| Callsign | CFG7KH |
|---|---|
| Flight time | N/A |
| Altitude | 35000 |
| Route | AMLUH2G AMLUH M852 DENIX DCT ZUCKA DCT ARMUT DCT LULAR DCT DEXIT DCT DER DCT MEDUX UM867 KOGAT DCT ERANA DCT TSL UN130 MES UN139 LURUS UL995 CODIC CODIC1K |
| Aircraft | A320/M-SDE3FGHIRWY/LB1 |
Departure
| Time | 2026-04-23 13:01 |
|---|---|
| Airport | Hamburg Helmut Schmidt Airport (EDDH) |
Arrival
| Time | N/A |
|---|---|
| Airport | Rhodes International Airport "Diagoras" (LGRP) |
| Time | Latitude | Longitude | Altitude | Speed | Heading |
|---|---|---|---|---|---|
| 2026-04-23 11:43 | 53.62964 | 10.00291 | 51 ft | 0 kts | 122° |
| 2026-04-23 12:54 | 53.62965 | 10.00290 | 50 ft | 0 kts | 122° |
| 2026-04-23 12:54 | 53.62970 | 10.00276 | 49 ft | 2 kts | 122° |
| 2026-04-23 12:54 | 53.62976 | 10.00259 | 48 ft | 2 kts | 122° |
| 2026-04-23 12:55 | 53.62981 | 10.00248 | 49 ft | 2 kts | 122° |
| 2026-04-23 12:55 | 53.62987 | 10.00232 | 48 ft | 2 kts | 122° |
| 2026-04-23 12:55 | 53.62993 | 10.00215 | 50 ft | 2 kts | 142° |
| 2026-04-23 12:55 | 53.63003 | 10.00205 | 50 ft | 2 kts | 175° |
| 2026-04-23 12:56 | 53.63014 | 10.00204 | 50 ft | 2 kts | 201° |
| 2026-04-23 12:56 | 53.63025 | 10.00213 | 50 ft | 0 kts | 213° |
| 2026-04-23 12:57 | 53.63022 | 10.00211 | 50 ft | 3 kts | 211° |
| 2026-04-23 12:58 | 53.62979 | 10.00166 | 49 ft | 8 kts | 212° |
| 2026-04-23 12:58 | 53.62937 | 10.00121 | 50 ft | 7 kts | 212° |
| 2026-04-23 12:58 | 53.62891 | 10.00072 | 50 ft | 10 kts | 212° |
| 2026-04-23 12:58 | 53.62850 | 9.99980 | 50 ft | 9 kts | 243° |
| 2026-04-23 12:59 | 53.62818 | 9.99871 | 47 ft | 12 kts | 246° |
| 2026-04-23 12:59 | 53.62829 | 9.99776 | 48 ft | 9 kts | 332° |
| 2026-04-23 12:59 | 53.62843 | 9.99764 | 49 ft | 0 kts | 333° |
| 2026-04-23 13:00 | 53.62850 | 9.99757 | 49 ft | 8 kts | 333° |
| 2026-04-23 13:00 | 53.63123 | 9.99521 | 49 ft | 78 kts | 333° |
| 2026-04-23 13:00 | 53.63787 | 9.98951 | 47 ft | 134 kts | 333° |
| 2026-04-23 13:01 | 53.64741 | 9.98143 | 236 ft | 161 kts | 330° |
| 2026-04-23 13:01 | 53.65748 | 9.97307 | 917 ft | 163 kts | 329° |
| 2026-04-23 13:01 | 53.66769 | 9.96423 | 1606 ft | 167 kts | 330° |
| 2026-04-23 13:01 | 53.67817 | 9.95503 | 2147 ft | 173 kts | 330° |
| 2026-04-23 13:02 | 53.68938 | 9.94731 | 2720 ft | 177 kts | 348° |
| 2026-04-23 13:02 | 53.70233 | 9.94616 | 2969 ft | 198 kts | 358° |
| 2026-04-23 13:02 | 53.71655 | 9.94650 | 3405 ft | 210 kts | 4° |
| 2026-04-23 13:02 | 53.73000 | 9.95490 | 4163 ft | 210 kts | 36° |
| 2026-04-23 13:03 | 53.73897 | 9.97486 | 4746 ft | 223 kts | 66° |
| 2026-04-23 13:03 | 53.74164 | 10.00115 | 5400 ft | 229 kts | 80° |
| 2026-04-23 13:03 | 53.74180 | 10.02826 | 6010 ft | 237 kts | 97° |
| 2026-04-23 13:03 | 53.73620 | 10.05501 | 6507 ft | 254 kts | 115° |
| 2026-04-23 13:04 | 53.72704 | 10.08224 | 6730 ft | 279 kts | 116° |
| 2026-04-23 13:04 | 53.71642 | 10.11055 | 7250 ft | 292 kts | 129° |
| 2026-04-23 13:04 | 53.70027 | 10.13181 | 7904 ft | 301 kts | 153° |
| 2026-04-23 13:04 | 53.68098 | 10.14609 | 8625 ft | 305 kts | 156° |
| 2026-04-23 13:05 | 53.66130 | 10.16005 | 9325 ft | 309 kts | 156° |
| 2026-04-23 13:05 | 53.64133 | 10.17402 | 10023 ft | 313 kts | 157° |
| 2026-04-23 13:05 | 53.62103 | 10.18815 | 10566 ft | 323 kts | 157° |
| 2026-04-23 13:05 | 53.59950 | 10.20314 | 10711 ft | 346 kts | 156° |
| 2026-04-23 13:06 | 53.55228 | 10.23626 | 10974 ft | 388 kts | 156° |
| 2026-04-23 13:06 | 53.52699 | 10.25403 | 11376 ft | 398 kts | 157° |
| 2026-04-23 13:06 | 53.50130 | 10.27202 | 11941 ft | 402 kts | 157° |
| 2026-04-23 13:07 | 53.47540 | 10.29011 | 12541 ft | 405 kts | 157° |
| 2026-04-23 13:07 | 53.44922 | 10.30837 | 13146 ft | 408 kts | 157° |
| 2026-04-23 13:07 | 53.42258 | 10.32532 | 13742 ft | 412 kts | 163° |
| 2026-04-23 13:07 | 53.39484 | 10.33794 | 14300 ft | 415 kts | 165° |
| 2026-04-23 13:08 | 53.36684 | 10.35043 | 14845 ft | 417 kts | 165° |
| 2026-04-23 13:08 | 53.33873 | 10.36299 | 15403 ft | 419 kts | 165° |
| 2026-04-23 13:08 | 53.31048 | 10.37565 | 15953 ft | 422 kts | 164° |
| 2026-04-23 13:08 | 53.28206 | 10.38838 | 16498 ft | 424 kts | 164° |
| 2026-04-23 13:09 | 53.25346 | 10.40121 | 17034 ft | 426 kts | 164° |
| 2026-04-23 13:09 | 53.22473 | 10.41410 | 17587 ft | 429 kts | 164° |
| 2026-04-23 13:09 | 53.19587 | 10.42705 | 18113 ft | 431 kts | 164° |
| 2026-04-23 13:09 | 53.16680 | 10.44004 | 18628 ft | 433 kts | 163° |
| 2026-04-23 13:10 | 53.13795 | 10.45291 | 19044 ft | 436 kts | 163° |
| 2026-04-23 13:10 | 53.10809 | 10.46520 | 19480 ft | 438 kts | 166° |
| 2026-04-23 13:10 | 53.07810 | 10.47553 | 19908 ft | 441 kts | 168° |
| 2026-04-23 13:10 | 53.04786 | 10.48461 | 20324 ft | 443 kts | 169° |
| 2026-04-23 13:11 | 53.01734 | 10.49318 | 20734 ft | 445 kts | 169° |
| 2026-04-23 13:11 | 52.98671 | 10.50174 | 21141 ft | 448 kts | 169° |
| 2026-04-23 13:11 | 52.95597 | 10.51061 | 21526 ft | 449 kts | 168° |
| 2026-04-23 13:11 | 52.92514 | 10.51983 | 21898 ft | 451 kts | 168° |
| 2026-04-23 13:12 | 52.89463 | 10.52918 | 22269 ft | 453 kts | 168° |
| 2026-04-23 13:12 | 52.86317 | 10.53899 | 22634 ft | 455 kts | 167° |
| 2026-04-23 13:12 | 52.83240 | 10.54867 | 22976 ft | 457 kts | 167° |
| 2026-04-23 13:12 | 52.80070 | 10.55864 | 23328 ft | 459 kts | 167° |
| 2026-04-23 13:13 | 52.76962 | 10.56831 | 23656 ft | 461 kts | 167° |
| 2026-04-23 13:13 | 52.73762 | 10.57819 | 23961 ft | 463 kts | 167° |
| 2026-04-23 13:13 | 52.70583 | 10.58791 | 24239 ft | 465 kts | 167° |
| 2026-04-23 13:13 | 52.67396 | 10.59760 | 24513 ft | 467 kts | 167° |
| 2026-04-23 13:14 | 52.64199 | 10.60730 | 24782 ft | 468 kts | 167° |
| 2026-04-23 13:14 | 52.60992 | 10.61701 | 25042 ft | 470 kts | 167° |
| 2026-04-23 13:14 | 52.57772 | 10.62679 | 25298 ft | 471 kts | 167° |
| 2026-04-23 13:14 | 52.54545 | 10.63664 | 25553 ft | 472 kts | 167° |
| 2026-04-23 13:15 | 52.51312 | 10.64653 | 25797 ft | 474 kts | 167° |
| 2026-04-23 13:15 | 52.48066 | 10.65643 | 26038 ft | 475 kts | 167° |
| 2026-04-23 13:15 | 52.44810 | 10.66632 | 26266 ft | 476 kts | 167° |
| 2026-04-23 13:15 | 52.41548 | 10.67618 | 26480 ft | 478 kts | 167° |
| 2026-04-23 13:16 | 52.38274 | 10.68606 | 26701 ft | 479 kts | 167° |
| 2026-04-23 13:16 | 52.34987 | 10.69597 | 26909 ft | 480 kts | 167° |
| 2026-04-23 13:16 | 52.31697 | 10.70589 | 27099 ft | 482 kts | 167° |
| 2026-04-23 13:16 | 52.28436 | 10.71565 | 27296 ft | 482 kts | 167° |
| 2026-04-23 13:17 | 52.25095 | 10.72565 | 27558 ft | 481 kts | 167° |
| 2026-04-23 13:17 | 52.21801 | 10.73553 | 27827 ft | 481 kts | 166° |
| 2026-04-23 13:17 | 52.18555 | 10.74527 | 28095 ft | 480 kts | 166° |
| 2026-04-23 13:17 | 52.15274 | 10.75510 | 28354 ft | 479 kts | 166° |
| 2026-04-23 13:18 | 52.11994 | 10.76489 | 28633 ft | 479 kts | 166° |
| 2026-04-23 13:18 | 52.08718 | 10.77461 | 28910 ft | 478 kts | 166° |
| 2026-04-23 13:18 | 52.05452 | 10.78430 | 29183 ft | 477 kts | 166° |
| 2026-04-23 13:18 | 52.02184 | 10.79400 | 29456 ft | 477 kts | 166° |
| 2026-04-23 13:19 | 51.98928 | 10.80367 | 29742 ft | 476 kts | 166° |
| 2026-04-23 13:19 | 51.95679 | 10.81330 | 30036 ft | 475 kts | 166° |
| 2026-04-23 13:19 | 51.92424 | 10.82293 | 30322 ft | 474 kts | 166° |
| 2026-04-23 13:19 | 51.89182 | 10.83252 | 30555 ft | 473 kts | 166° |
| 2026-04-23 13:20 | 51.85951 | 10.84207 | 30806 ft | 472 kts | 166° |
| 2026-04-23 13:20 | 51.82712 | 10.85159 | 31051 ft | 471 kts | 166° |
| 2026-04-23 13:20 | 51.79488 | 10.86101 | 31301 ft | 470 kts | 166° |
| 2026-04-23 13:20 | 51.76272 | 10.87037 | 31543 ft | 469 kts | 166° |
| 2026-04-23 13:21 | 51.73063 | 10.87971 | 31782 ft | 468 kts | 166° |
| 2026-04-23 13:21 | 51.69863 | 10.88917 | 32020 ft | 467 kts | 164° |
| 2026-04-23 13:21 | 51.66760 | 10.90307 | 32260 ft | 461 kts | 155° |
| 2026-04-23 13:21 | 51.63843 | 10.92349 | 32491 ft | 456 kts | 150° |
| 2026-04-23 13:22 | 51.61016 | 10.94527 | 32726 ft | 456 kts | 150° |
| 2026-04-23 13:22 | 51.58156 | 10.96714 | 32962 ft | 455 kts | 150° |
| 2026-04-23 13:22 | 51.55302 | 10.98884 | 33190 ft | 454 kts | 150° |
| 2026-04-23 13:22 | 51.52447 | 11.01044 | 33418 ft | 453 kts | 150° |
| 2026-04-23 13:23 | 51.49597 | 11.03196 | 33640 ft | 452 kts | 150° |
| 2026-04-23 13:23 | 51.46755 | 11.05345 | 33869 ft | 451 kts | 150° |
| 2026-04-23 13:23 | 51.43917 | 11.07497 | 34098 ft | 451 kts | 150° |
| 2026-04-23 13:23 | 51.41082 | 11.09646 | 34325 ft | 450 kts | 150° |
| 2026-04-23 13:24 | 51.38258 | 11.11781 | 34515 ft | 449 kts | 150° |
| 2026-04-23 13:24 | 51.35431 | 11.13915 | 34695 ft | 449 kts | 150° |
| 2026-04-23 13:24 | 51.32601 | 11.16050 | 34868 ft | 449 kts | 150° |
| 2026-04-23 13:24 | 51.29781 | 11.18176 | 35050 ft | 449 kts | 150° |
| 2026-04-23 13:25 | 51.26956 | 11.20304 | 35221 ft | 449 kts | 150° |
| 2026-04-23 13:25 | 51.21283 | 11.24565 | 35288 ft | 452 kts | 150° |
| 2026-04-23 13:26 | 51.15591 | 11.28818 | 35288 ft | 452 kts | 150° |
| 2026-04-23 13:26 | 51.09888 | 11.33065 | 35291 ft | 453 kts | 149° |
| 2026-04-23 13:27 | 51.04176 | 11.37313 | 35289 ft | 453 kts | 149° |
| 2026-04-23 13:27 | 50.98466 | 11.41553 | 35294 ft | 453 kts | 149° |
| 2026-04-23 13:28 | 50.92783 | 11.45753 | 35290 ft | 454 kts | 149° |
| 2026-04-23 13:28 | 50.87050 | 11.49976 | 35295 ft | 454 kts | 149° |
| 2026-04-23 13:29 | 50.81319 | 11.54198 | 35288 ft | 455 kts | 149° |
| 2026-04-23 13:29 | 50.75577 | 11.58414 | 35288 ft | 455 kts | 149° |
| 2026-04-23 13:30 | 50.69834 | 11.62612 | 35286 ft | 455 kts | 149° |
| 2026-04-23 13:30 | 50.64079 | 11.66812 | 35284 ft | 456 kts | 149° |
| 2026-04-23 13:31 | 50.58321 | 11.71008 | 35278 ft | 456 kts | 149° |
| 2026-04-23 13:31 | 50.52556 | 11.75190 | 35275 ft | 456 kts | 149° |
| 2026-04-23 13:32 | 50.46782 | 11.79366 | 35270 ft | 457 kts | 149° |
| 2026-04-23 13:32 | 50.41000 | 11.83540 | 35269 ft | 457 kts | 149° |
| 2026-04-23 13:33 | 50.35257 | 11.87680 | 35268 ft | 457 kts | 149° |
| 2026-04-23 13:33 | 50.29473 | 11.91835 | 35270 ft | 458 kts | 149° |
| 2026-04-23 13:34 | 50.23689 | 11.95982 | 35272 ft | 457 kts | 149° |
| 2026-04-23 13:34 | 50.17901 | 12.00114 | 35277 ft | 458 kts | 149° |
| 2026-04-23 13:35 | 50.12105 | 12.04240 | 35285 ft | 458 kts | 149° |
| 2026-04-23 13:35 | 50.06306 | 12.08359 | 35288 ft | 458 kts | 149° |
| 2026-04-23 13:36 | 50.00507 | 12.12464 | 35285 ft | 458 kts | 149° |
| 2026-04-23 13:36 | 49.94708 | 12.16561 | 35283 ft | 458 kts | 149° |
| 2026-04-23 13:37 | 49.88903 | 12.20657 | 35278 ft | 458 kts | 149° |
| 2026-04-23 13:37 | 49.83092 | 12.24745 | 35278 ft | 459 kts | 149° |
| 2026-04-23 13:38 | 49.77272 | 12.28827 | 35282 ft | 459 kts | 149° |
| 2026-04-23 13:38 | 49.71613 | 12.33259 | 35272 ft | 451 kts | 139° |
| 2026-04-23 13:39 | 49.66698 | 12.39161 | 35276 ft | 447 kts | 135° |
| 2026-04-23 13:39 | 49.61836 | 12.45151 | 35265 ft | 447 kts | 135° |
| 2026-04-23 13:40 | 49.56956 | 12.51115 | 35265 ft | 448 kts | 135° |
| 2026-04-23 13:40 | 49.52070 | 12.57062 | 35268 ft | 448 kts | 135° |
| 2026-04-23 13:41 | 49.48004 | 12.62020 | 35267 ft | 449 kts | 135° |
| 2026-04-23 13:41 | 49.43114 | 12.67980 | 35265 ft | 449 kts | 135° |
| 2026-04-23 13:42 | 49.38199 | 12.73932 | 35261 ft | 450 kts | 135° |
| 2026-04-23 13:42 | 49.33723 | 12.80475 | 35260 ft | 443 kts | 127° |
| 2026-04-23 13:43 | 49.29456 | 12.87314 | 35262 ft | 444 kts | 127° |
| 2026-04-23 13:43 | 49.25175 | 12.94137 | 35264 ft | 445 kts | 127° |
| 2026-04-23 13:44 | 49.20887 | 13.00960 | 35261 ft | 445 kts | 127° |
| 2026-04-23 13:44 | 49.16593 | 13.07780 | 35261 ft | 446 kts | 127° |
| 2026-04-23 13:45 | 49.12281 | 13.14593 | 35257 ft | 446 kts | 127° |
| 2026-04-23 13:45 | 49.08000 | 13.21361 | 35250 ft | 446 kts | 127° |
| 2026-04-23 13:46 | 49.03691 | 13.28159 | 35247 ft | 446 kts | 127° |
| 2026-04-23 13:46 | 48.99368 | 13.34950 | 35239 ft | 447 kts | 127° |
| 2026-04-23 13:47 | 48.95028 | 13.41737 | 35233 ft | 447 kts | 127° |
| 2026-04-23 13:47 | 48.90680 | 13.48513 | 35230 ft | 448 kts | 127° |
| 2026-04-23 13:48 | 48.86330 | 13.55287 | 35230 ft | 448 kts | 127° |
| 2026-04-23 13:48 | 48.81970 | 13.62070 | 35228 ft | 449 kts | 127° |
| 2026-04-23 13:49 | 48.77603 | 13.68849 | 35231 ft | 449 kts | 127° |
| 2026-04-23 13:49 | 48.72855 | 13.75142 | 35225 ft | 456 kts | 134° |
| 2026-04-23 13:50 | 48.67964 | 13.81165 | 35223 ft | 457 kts | 134° |
| 2026-04-23 13:50 | 48.63037 | 13.87237 | 35226 ft | 457 kts | 134° |
| 2026-04-23 13:51 | 48.58096 | 13.93303 | 35225 ft | 458 kts | 134° |
| 2026-04-23 13:51 | 48.53144 | 13.99362 | 35231 ft | 458 kts | 134° |
| 2026-04-23 13:52 | 48.48189 | 14.05412 | 35239 ft | 459 kts | 134° |
| 2026-04-23 13:52 | 48.43222 | 14.11450 | 35243 ft | 459 kts | 134° |
| 2026-04-23 13:53 | 48.38249 | 14.17484 | 35248 ft | 460 kts | 134° |
| 2026-04-23 13:53 | 48.33228 | 14.23563 | 35248 ft | 465 kts | 134° |
| 2026-04-23 13:54 | 48.28176 | 14.29664 | 35248 ft | 466 kts | 134° |
| 2026-04-23 13:54 | 48.23145 | 14.35721 | 35245 ft | 467 kts | 134° |
| 2026-04-23 13:55 | 48.18078 | 14.41815 | 35241 ft | 467 kts | 134° |
| 2026-04-23 13:55 | 48.13004 | 14.47905 | 35237 ft | 468 kts | 135° |
| 2026-04-23 13:56 | 48.07919 | 14.53978 | 35231 ft | 468 kts | 135° |
| 2026-04-23 13:56 | 48.02820 | 14.60054 | 35221 ft | 469 kts | 135° |
| 2026-04-23 13:57 | 47.97716 | 14.66127 | 35213 ft | 469 kts | 135° |
| 2026-04-23 13:57 | 47.92609 | 14.72189 | 35205 ft | 470 kts | 135° |
| 2026-04-23 13:58 | 47.87496 | 14.78242 | 35227 ft | 468 kts | 135° |
| 2026-04-23 13:58 | 47.82401 | 14.84245 | 35230 ft | 467 kts | 136° |
| 2026-04-23 13:59 | 47.77349 | 14.90186 | 35220 ft | 466 kts | 136° |
| 2026-04-23 13:59 | 47.72258 | 14.96160 | 35216 ft | 466 kts | 136° |
| 2026-04-23 14:00 | 47.67993 | 15.01151 | 35208 ft | 466 kts | 136° |
| 2026-04-23 14:00 | 47.62075 | 15.08070 | 35190 ft | 466 kts | 136° |
| 2026-04-23 14:01 | 47.56983 | 15.14010 | 35176 ft | 466 kts | 136° |
| 2026-04-23 14:01 | 47.51889 | 15.19935 | 35159 ft | 466 kts | 136° |
| 2026-04-23 14:02 | 47.46771 | 15.25859 | 35166 ft | 467 kts | 136° |
| 2026-04-23 14:02 | 47.41646 | 15.31767 | 35161 ft | 467 kts | 137° |
| 2026-04-23 14:03 | 47.36525 | 15.37665 | 35157 ft | 467 kts | 137° |
| 2026-04-23 14:03 | 47.31403 | 15.43569 | 35155 ft | 468 kts | 137° |
| 2026-04-23 14:04 | 47.26274 | 15.49464 | 35158 ft | 467 kts | 137° |
| 2026-04-23 14:04 | 47.21171 | 15.55308 | 35159 ft | 468 kts | 137° |
| 2026-04-23 14:05 | 47.16042 | 15.61178 | 35157 ft | 467 kts | 137° |
| 2026-04-23 14:05 | 47.10906 | 15.67024 | 35156 ft | 467 kts | 137° |
| 2026-04-23 14:06 | 47.05764 | 15.72842 | 35162 ft | 467 kts | 137° |
| 2026-04-23 14:06 | 47.00628 | 15.78659 | 35158 ft | 466 kts | 138° |
| 2026-04-23 14:07 | 46.95486 | 15.84462 | 35154 ft | 466 kts | 138° |
| 2026-04-23 14:07 | 46.87785 | 15.93141 | 35146 ft | 466 kts | 138° |
| 2026-04-23 14:08 | 46.82650 | 15.98924 | 35144 ft | 466 kts | 138° |
| 2026-04-23 14:08 | 46.77544 | 16.04646 | 35142 ft | 466 kts | 138° |
| 2026-04-23 14:09 | 46.72401 | 16.10387 | 35141 ft | 466 kts | 139° |
| 2026-04-23 14:09 | 46.67254 | 16.16125 | 35139 ft | 466 kts | 139° |
| 2026-04-23 14:10 | 46.62103 | 16.21851 | 35139 ft | 465 kts | 139° |
| 2026-04-23 14:10 | 46.56955 | 16.27562 | 35137 ft | 465 kts | 139° |
| 2026-04-23 14:11 | 46.51814 | 16.33255 | 35136 ft | 465 kts | 139° |
| 2026-04-23 14:11 | 46.46674 | 16.38938 | 35135 ft | 464 kts | 139° |
| 2026-04-23 14:12 | 46.41564 | 16.44562 | 35133 ft | 464 kts | 139° |
| 2026-04-23 14:12 | 46.36420 | 16.50212 | 35127 ft | 464 kts | 139° |
| 2026-04-23 14:13 | 46.31276 | 16.55854 | 35127 ft | 464 kts | 139° |
| 2026-04-23 14:13 | 46.26127 | 16.61485 | 35131 ft | 464 kts | 139° |
| 2026-04-23 14:14 | 46.20984 | 16.67103 | 35135 ft | 463 kts | 140° |
| 2026-04-23 14:14 | 46.15835 | 16.72695 | 35134 ft | 463 kts | 140° |
| 2026-04-23 14:15 | 46.10683 | 16.78273 | 35135 ft | 463 kts | 140° |
| 2026-04-23 14:15 | 46.05537 | 16.83841 | 35136 ft | 462 kts | 140° |
| 2026-04-23 14:16 | 46.00433 | 16.89368 | 35139 ft | 462 kts | 140° |
| 2026-04-23 14:16 | 45.95299 | 16.94916 | 35138 ft | 462 kts | 140° |
| 2026-04-23 14:17 | 45.90154 | 17.00452 | 35143 ft | 462 kts | 140° |
| 2026-04-23 14:17 | 45.85004 | 17.05963 | 35140 ft | 462 kts | 140° |
| 2026-04-23 14:18 | 45.79854 | 17.11468 | 35141 ft | 461 kts | 140° |
| 2026-04-23 14:18 | 45.74710 | 17.16961 | 35141 ft | 461 kts | 140° |
| 2026-04-23 14:19 | 45.69560 | 17.22444 | 35142 ft | 461 kts | 140° |
| 2026-04-23 14:19 | 45.64409 | 17.27920 | 35134 ft | 461 kts | 140° |
| 2026-04-23 14:20 | 45.59259 | 17.33383 | 35136 ft | 461 kts | 140° |
| 2026-04-23 14:20 | 45.54103 | 17.38838 | 35132 ft | 461 kts | 140° |
| 2026-04-23 14:21 | 45.48951 | 17.44266 | 35131 ft | 461 kts | 140° |
| 2026-04-23 14:21 | 45.43798 | 17.49688 | 35133 ft | 460 kts | 140° |
| 2026-04-23 14:22 | 45.38684 | 17.55062 | 35131 ft | 460 kts | 140° |
| 2026-04-23 14:22 | 45.33538 | 17.60465 | 35128 ft | 460 kts | 140° |
| 2026-04-23 14:23 | 45.28394 | 17.65846 | 35130 ft | 459 kts | 141° |
| 2026-04-23 14:23 | 45.23239 | 17.71212 | 35126 ft | 459 kts | 141° |
| 2026-04-23 14:24 | 45.18089 | 17.76570 | 35125 ft | 459 kts | 140° |
| 2026-04-23 14:24 | 45.12947 | 17.81912 | 35125 ft | 459 kts | 141° |
| 2026-04-23 14:25 | 45.07798 | 17.87247 | 35122 ft | 458 kts | 141° |
| 2026-04-23 14:25 | 45.02650 | 17.92572 | 35122 ft | 458 kts | 141° |
| 2026-04-23 14:26 | 44.97497 | 17.97873 | 35121 ft | 458 kts | 141° |